Time;durP1;ratioP1;P1;durP2;ratioP2;P2;SDS_P1;SDS_P2;PMS_P1;PMS_P2;Temp;Humidity;BMP_temperature;BMP_pressure;BME280_temperature;BME280_humidity;BME280_pressure;Samples;Min_cycle;Max_cycle;Signal;HPM_P1;HPM_P2
2023/07/18 00:01:58;;;;;;;8.65;4.47;;;14.00;99.90;;;;;;4923284;29;20054;-67
2023/07/18 00:04:27;;;;;;;8.10;3.80;;;14.00;99.90;;;;;;4944308;28;20047;-66
2023/07/18 00:06:53;;;;;;;6.70;3.28;;;14.00;99.90;;;;;;4951302;28;20382;-65
2023/07/18 00:09:20;;;;;;;6.47;4.00;;;13.90;99.90;;;;;;4949018;28;20046;-64
2023/07/18 00:11:46;;;;;;;11.20;3.97;;;13.80;99.90;;;;;;4948403;28;20086;-64
2023/07/18 00:14:12;;;;;;;9.73;4.20;;;13.80;99.90;;;;;;4954156;28;20127;-64
2023/07/18 00:16:38;;;;;;;11.77;4.47;;;13.80;99.90;;;;;;4932867;29;20089;-65
2023/07/18 00:19:03;;;;;;;11.73;4.68;;;13.80;99.90;;;;;;4931083;28;20972;-65
2023/07/18 00:21:29;;;;;;;8.95;4.55;;;13.80;99.90;;;;;;4947138;28;20074;-65
2023/07/18 00:23:55;;;;;;;7.53;4.18;;;13.80;99.90;;;;;;4953812;29;20421;-64
2023/07/18 00:26:24;;;;;;;8.20;3.85;;;13.80;99.90;;;;;;4942087;28;20036;-64
2023/07/18 00:28:53;;;;;;;5.75;3.35;;;13.60;99.90;;;;;;4948401;28;20043;-65
2023/07/18 00:31:19;;;;;;;7.20;3.50;;;13.50;99.90;;;;;;4948926;28;20566;-67
2023/07/18 00:33:45;;;;;;;6.35;3.40;;;13.40;99.90;;;;;;4936201;28;20545;-66
2023/07/18 00:36:11;;;;;;;11.35;4.07;;;13.40;99.90;;;;;;4928194;28;20126;-66
2023/07/18 00:38:37;;;;;;;5.57;3.50;;;13.30;99.90;;;;;;4942085;28;20066;-66
2023/07/18 00:41:04;;;;;;;6.35;3.15;;;13.30;99.90;;;;;;4944608;29;20047;-64
2023/07/18 00:43:34;;;;;;;9.05;3.88;;;13.20;99.90;;;;;;4937141;28;20768;-66
2023/07/18 00:46:01;;;;;;;9.38;4.40;;;13.20;99.90;;;;;;4948016;28;20082;-66
2023/07/18 00:48:34;;;;;;;8.93;4.25;;;13.20;99.90;;;;;;4953343;28;20379;-67
2023/07/18 00:51:07;;;;;;;15.30;5.10;;;13.30;99.90;;;;;;4942058;28;20501;-67
2023/07/18 00:53:35;;;;;;;11.27;5.10;;;13.30;99.90;;;;;;4946050;28;20043;-66
2023/07/18 00:56:01;;;;;;;10.02;5.10;;;13.30;99.90;;;;;;4944941;28;20047;-66
2023/07/18 00:58:28;;;;;;;11.05;4.45;;;13.30;99.90;;;;;;4940710;29;20043;-67
2023/07/18 01:00:54;;;;;;;9.25;4.57;;;13.40;99.90;;;;;;4940343;28;20047;-65
2023/07/18 01:03:20;;;;;;;10.55;4.72;;;13.30;99.90;;;;;;4944329;28;20043;-66
2023/07/18 01:05:46;;;;;;;10.80;4.90;;;13.30;99.90;;;;;;4945004;29;20043;-67
2023/07/18 01:08:11;;;;;;;13.05;4.97;;;13.30;99.90;;;;;;4940754;28;20401;-68
2023/07/18 01:10:38;;;;;;;11.05;4.65;;;13.30;99.90;;;;;;4946100;28;20068;-67
2023/07/18 01:13:04;;;;;;;15.90;5.15;;;13.30;99.90;;;;;;4947931;28;20047;-64
2023/07/18 01:15:32;;;;;;;9.27;4.93;;;13.30;99.90;;;;;;4947660;28;20050;-67
2023/07/18 01:17:58;;;;;;;9.65;4.95;;;13.30;99.90;;;;;;4939079;28;20035;-65
2023/07/18 01:20:27;;;;;;;12.10;5.25;;;13.30;99.90;;;;;;4944287;28;20354;-66
2023/07/18 01:22:54;;;;;;;11.50;5.18;;;13.30;99.90;;;;;;4950403;28;20510;-65
2023/07/18 01:25:21;;;;;;;11.45;4.85;;;13.30;99.90;;;;;;4950818;28;20039;-65
2023/07/18 01:27:49;;;;;;;10.43;4.75;;;13.30;99.90;;;;;;4953308;28;20039;-65
2023/07/18 01:30:19;;;;;;;10.70;5.68;;;13.20;99.90;;;;;;4956964;28;20477;-63
2023/07/18 01:32:48;;;;;;;11.90;5.38;;;13.20;99.90;;;;;;4950132;28;20036;-65
2023/07/18 01:35:17;;;;;;;12.50;5.07;;;13.20;99.90;;;;;;4949755;28;20043;-64
2023/07/18 01:37:46;;;;;;;12.55;5.30;;;13.20;99.90;;;;;;4956745;28;20101;-64
2023/07/18 01:40:15;;;;;;;11.85;5.20;;;13.20;99.90;;;;;;4956811;29;20047;-65
2023/07/18 01:42:42;;;;;;;10.35;5.63;;;13.20;99.90;;;;;;4941223;28;20169;-64
2023/07/18 01:45:09;;;;;;;9.05;5.20;;;13.20;99.90;;;;;;4950290;28;20047;-64
2023/07/18 01:47:36;;;;;;;10.00;5.28;;;13.20;99.90;;;;;;4954172;28;20488;-67
2023/07/18 01:50:04;;;;;;;10.98;5.25;;;13.20;99.90;;;;;;4951107;28;20039;-64
2023/07/18 01:52:31;;;;;;;10.32;5.07;;;13.20;99.90;;;;;;4924258;28;20101;-65
2023/07/18 01:54:58;;;;;;;12.85;5.70;;;13.20;99.90;;;;;;4952917;28;20081;-65
2023/07/18 01:57:40;;;;;;;9.07;5.07;;;13.20;99.90;;;;;;4954564;29;20062;-66
2023/07/18 02:00:11;;;;;;;11.68;5.50;;;13.20;99.90;;;;;;4944784;28;20545;-66
2023/07/18 02:02:37;;;;;;;11.13;5.28;;;13.10;99.90;;;;;;4954018;28;20039;-67
2023/07/18 02:05:04;;;;;;;10.80;5.22;;;13.10;99.90;;;;;;4956721;29;20401;-67
2023/07/18 02:07:30;;;;;;;12.27;5.28;;;13.00;99.90;;;;;;4952787;28;20062;-67
2023/07/18 02:09:55;;;;;;;13.30;5.68;;;13.00;99.90;;;;;;4928874;29;20075;-67
2023/07/18 02:12:21;;;;;;;10.98;5.38;;;13.00;99.90;;;;;;4955799;28;20071;-67
2023/07/18 02:14:47;;;;;;;12.82;5.80;;;13.00;99.90;;;;;;4948014;28;20079;-67
2023/07/18 02:17:12;;;;;;;13.57;5.53;;;13.00;99.90;;;;;;4943673;28;20126;-66
2023/07/18 02:19:38;;;;;;;11.80;5.50;;;12.90;99.90;;;;;;4947005;28;20084;-68
2023/07/18 02:22:04;;;;;;;12.70;5.68;;;12.90;99.90;;;;;;4935681;29;20114;-67
2023/07/18 02:24:31;;;;;;;8.90;5.00;;;12.90;99.90;;;;;;4946711;28;20036;-67
2023/07/18 02:26:57;;;;;;;12.73;5.32;;;12.90;99.90;;;;;;4947902;28;20039;-67
2023/07/18 02:29:23;;;;;;;10.85;5.47;;;12.80;99.90;;;;;;4945114;28;20035;-67
2023/07/18 02:31:49;;;;;;;11.30;4.90;;;12.80;99.90;;;;;;4939109;28;20070;-67
2023/07/18 02:34:14;;;;;;;10.57;4.90;;;12.70;99.90;;;;;;4939113;28;20051;-67
2023/07/18 02:36:40;;;;;;;12.27;5.13;;;12.70;99.90;;;;;;4952894;28;20086;-67
2023/07/18 02:39:08;;;;;;;12.98;5.40;;;12.70;99.90;;;;;;4955724;29;20524;-65
2023/07/18 02:41:37;;;;;;;11.50;4.93;;;12.60;99.90;;;;;;4944584;28;20047;-65
2023/07/18 02:44:04;;;;;;;11.32;4.97;;;12.60;99.90;;;;;;4950210;28;20515;-67
2023/07/18 02:46:29;;;;;;;11.13;5.45;;;12.60;99.90;;;;;;4946771;28;20039;-66
2023/07/18 02:48:55;;;;;;;14.02;5.53;;;12.70;99.90;;;;;;4935124;28;20038;-67
2023/07/18 02:51:20;;;;;;;10.90;5.28;;;12.70;99.90;;;;;;4938657;28;20039;-63
2023/07/18 02:53:46;;;;;;;12.68;5.32;;;12.60;99.90;;;;;;4947154;28;20039;-64
2023/07/18 02:56:12;;;;;;;10.55;5.15;;;12.60;99.90;;;;;;4946845;29;20050;-65
2023/07/18 02:58:37;;;;;;;13.57;5.10;;;12.60;99.90;;;;;;4935566;28;20086;-66
2023/07/18 03:01:03;;;;;;;12.20;5.80;;;12.60;99.90;;;;;;4950327;28;20086;-66
2023/07/18 03:03:30;;;;;;;12.30;5.50;;;12.60;99.90;;;;;;4955367;28;20086;-66
2023/07/18 03:05:56;;;;;;;14.77;5.20;;;12.60;99.90;;;;;;4942252;28;20027;-66
2023/07/18 03:08:22;;;;;;;17.27;6.03;;;12.60;99.90;;;;;;4951988;28;20039;-66
2023/07/18 03:10:48;;;;;;;13.02;5.47;;;12.60;99.90;;;;;;4947292;28;20507;-66
2023/07/18 03:13:14;;;;;;;16.15;5.85;;;12.60;99.90;;;;;;4943035;29;20158;-66
2023/07/18 03:15:40;;;;;;;18.08;5.60;;;12.60;99.90;;;;;;4945889;28;20510;-66
2023/07/18 03:18:06;;;;;;;13.68;5.97;;;12.60;99.90;;;;;;4944464;28;20043;-64
2023/07/18 03:20:32;;;;;;;15.98;5.90;;;12.60;99.90;;;;;;4946125;29;20066;-66
2023/07/18 03:22:58;;;;;;;13.23;6.22;;;12.60;99.90;;;;;;4926610;28;20565;-65
2023/07/18 03:25:23;;;;;;;12.10;6.35;;;12.60;99.90;;;;;;4946834;28;20035;-65
2023/07/18 03:27:50;;;;;;;12.43;5.90;;;12.60;99.90;;;;;;4953636;28;20066;-65
2023/07/18 03:30:16;;;;;;;14.73;6.00;;;12.70;99.90;;;;;;4954553;29;20126;-65
2023/07/18 03:32:42;;;;;;;13.93;6.32;;;12.60;99.90;;;;;;4932487;28;20036;-66
2023/07/18 03:35:09;;;;;;;11.95;5.82;;;12.70;99.90;;;;;;4948501;28;20040;-64
2023/07/18 03:37:35;;;;;;;14.15;5.95;;;12.70;99.90;;;;;;4950412;28;20102;-67
2023/07/18 03:40:06;;;;;;;11.52;6.00;;;12.70;99.90;;;;;;4938899;28;20034;-66
2023/07/18 03:42:32;;;;;;;12.38;5.50;;;12.70;99.90;;;;;;4945602;28;20078;-67
2023/07/18 03:44:58;;;;;;;13.50;5.65;;;12.70;99.90;;;;;;4946145;29;20118;-67
2023/07/18 03:47:24;;;;;;;13.75;5.60;;;12.70;99.90;;;;;;4940367;28;20046;-66
2023/07/18 03:49:50;;;;;;;10.75;5.55;;;12.70;99.90;;;;;;4944496;28;20494;-67
2023/07/18 03:52:16;;;;;;;12.32;5.82;;;12.70;99.90;;;;;;4950652;29;20587;-66
2023/07/18 03:54:42;;;;;;;15.43;5.78;;;12.70;99.90;;;;;;4938767;28;20041;-68
2023/07/18 03:57:08;;;;;;;10.43;5.75;;;12.70;99.90;;;;;;4936325;28;20533;-62
2023/07/18 03:59:34;;;;;;;13.38;5.30;;;12.70;99.90;;;;;;4944327;28;20047;-62
2023/07/18 04:01:59;;;;;;;12.88;5.60;;;12.70;99.90;;;;;;4938835;28;20054;-67
2023/07/18 04:04:26;;;;;;;11.95;5.00;;;12.80;99.90;;;;;;4917747;29;20124;-65
2023/07/18 04:06:52;;;;;;;14.85;5.10;;;12.80;99.90;;;;;;4944465;28;20047;-66
2023/07/18 04:09:18;;;;;;;11.07;4.88;;;12.80;99.90;;;;;;4939197;29;20047;-64
2023/07/18 04:11:46;;;;;;;13.70;5.28;;;12.90;99.90;;;;;;4941202;28;20093;-65
2023/07/18 04:14:12;;;;;;;13.38;4.78;;;12.80;99.90;;;;;;4940238;28;20062;-65
2023/07/18 04:16:37;;;;;;;14.07;5.20;;;12.90;99.90;;;;;;4944294;28;20047;-65
2023/07/18 04:19:03;;;;;;;9.88;4.85;;;12.90;99.90;;;;;;4946919;28;20086;-66
2023/07/18 04:21:29;;;;;;;11.30;4.80;;;12.90;99.90;;;;;;4936127;28;20487;-66
2023/07/18 04:23:55;;;;;;;11.38;4.38;;;13.00;99.90;;;;;;4944246;28;20097;-66
2023/07/18 04:26:20;;;;;;;11.52;4.63;;;13.00;99.90;;;;;;4945069;28;20039;-65
2023/07/18 04:28:46;;;;;;;11.38;4.95;;;13.10;99.90;;;;;;4927467;28;20078;-65
2023/07/18 04:31:13;;;;;;;8.57;4.70;;;13.10;99.90;;;;;;4935473;28;20514;-65
2023/07/18 04:33:39;;;;;;;14.77;5.00;;;13.20;99.90;;;;;;4951844;28;20047;-65
2023/07/18 04:36:06;;;;;;;10.27;4.93;;;13.30;99.90;;;;;;4945562;29;20528;-66
2023/07/18 04:38:37;;;;;;;11.02;5.03;;;13.30;99.90;;;;;;4933553;28;20048;-65
2023/07/18 04:41:03;;;;;;;11.38;5.15;;;13.30;99.90;;;;;;4943486;28;20058;-65
2023/07/18 04:43:29;;;;;;;12.05;5.28;;;13.40;99.90;;;;;;4950838;28;20042;-66
2023/07/18 04:45:55;;;;;;;11.45;5.10;;;13.40;99.90;;;;;;4937566;28;20043;-67
2023/07/18 04:48:21;;;;;;;10.45;5.13;;;13.50;99.90;;;;;;4937532;28;20124;-65
2023/07/18 04:50:51;;;;;;;9.93;4.40;;;13.50;99.90;;;;;;4942722;28;20046;-65
2023/07/18 04:53:17;;;;;;;15.38;4.40;;;13.50;99.90;;;;;;4938980;28;20048;-66
2023/07/18 04:55:44;;;;;;;8.50;4.68;;;13.50;99.90;;;;;;4941916;28;20039;-65
2023/07/18 04:58:10;;;;;;;11.40;5.30;;;13.50;99.90;;;;;;4938544;28;20078;-63
2023/07/18 05:00:36;;;;;;;8.27;4.00;;;13.50;99.90;;;;;;4937970;28;20039;-63
2023/07/18 05:03:02;;;;;;;10.55;4.38;;;13.60;99.90;;;;;;4930430;28;20111;-62
2023/07/18 05:05:29;;;;;;;14.05;4.63;;;13.70;99.90;;;;;;4937346;28;20474;-66
2023/07/18 05:07:56;;;;;;;14.15;5.05;;;13.80;99.90;;;;;;4935063;29;20082;-65
2023/07/18 05:10:22;;;;;;;10.93;4.53;;;13.90;99.90;;;;;;4922490;29;20043;-66
2023/07/18 05:12:51;;;;;;;13.50;4.97;;;14.10;99.90;;;;;;4936319;28;20115;-67
2023/07/18 05:15:17;;;;;;;11.35;4.50;;;14.20;99.90;;;;;;4938357;28;20049;-66
2023/07/18 05:17:43;;;;;;;12.18;4.50;;;14.20;99.90;;;;;;4931641;28;20043;-64
2023/07/18 05:20:12;;;;;;;13.05;4.20;;;14.20;99.90;;;;;;4902848;29;20032;-66
2023/07/18 05:22:39;;;;;;;8.20;4.18;;;14.30;99.90;;;;;;4935158;28;20138;-64
2023/07/18 05:25:10;;;;;;;11.75;4.65;;;14.30;99.90;;;;;;4935162;29;20062;-64
2023/07/18 05:27:36;;;;;;;11.43;4.78;;;14.30;99.90;;;;;;4926555;28;20054;-65
2023/07/18 05:30:04;;;;;;;10.02;4.10;;;14.40;99.90;;;;;;4939243;28;20032;-67
2023/07/18 05:32:30;;;;;;;10.57;4.90;;;14.50;99.90;;;;;;4938127;28;20514;-67
2023/07/18 05:34:57;;;;;;;15.63;5.20;;;14.60;99.90;;;;;;4921700;29;20043;-65
2023/07/18 05:37:25;;;;;;;12.38;4.65;;;14.60;99.90;;;;;;4932427;28;20047;-65
2023/07/18 05:39:51;;;;;;;10.90;4.20;;;14.70;99.90;;;;;;4940687;28;20462;-65
2023/07/18 05:42:17;;;;;;;9.02;4.20;;;14.80;99.90;;;;;;4943024;28;20039;-66
2023/07/18 05:44:42;;;;;;;12.07;4.28;;;14.70;99.90;;;;;;4945253;28;20039;-66
2023/07/18 05:47:08;;;;;;;11.30;4.60;;;14.70;99.90;;;;;;4952193;28;20461;-66
2023/07/18 05:49:34;;;;;;;14.48;4.90;;;14.70;99.90;;;;;;4944757;28;20550;-66
2023/07/18 05:51:59;;;;;;;8.02;4.60;;;14.80;99.90;;;;;;4945524;28;20035;-66
2023/07/18 05:54:25;;;;;;;12.88;4.57;;;14.80;99.90;;;;;;4952061;28;20051;-65
2023/07/18 05:56:51;;;;;;;12.48;5.00;;;14.80;99.90;;;;;;4952550;28;20106;-64
2023/07/18 05:59:16;;;;;;;13.07;4.90;;;14.90;99.90;;;;;;4952429;29;20421;-65
2023/07/18 06:01:42;;;;;;;12.23;4.75;;;15.00;99.90;;;;;;4931055;28;20046;-65
2023/07/18 06:04:09;;;;;;;10.23;4.35;;;15.10;99.90;;;;;;4951953;28;20049;-67
2023/07/18 06:06:35;;;;;;;11.52;4.30;;;15.20;99.90;;;;;;4956040;28;20047;-67
2023/07/18 06:09:00;;;;;;;10.90;4.85;;;15.30;99.90;;;;;;4926215;29;20040;-67
2023/07/18 06:11:26;;;;;;;10.55;5.28;;;15.40;99.90;;;;;;4945965;28;20043;-70
2023/07/18 06:13:51;;;;;;;9.52;4.50;;;15.60;99.90;;;;;;4955773;28;20046;-67
2023/07/18 06:16:17;;;;;;;10.73;4.30;;;15.70;99.90;;;;;;4947228;28;20499;-67
2023/07/18 06:18:43;;;;;;;14.50;4.63;;;15.80;99.90;;;;;;4945941;28;20039;-67
2023/07/18 06:21:08;;;;;;;11.77;4.20;;;15.90;99.90;;;;;;4938708;29;20050;-68
2023/07/18 06:23:34;;;;;;;8.40;4.53;;;16.00;99.90;;;;;;4961607;28;20126;-67
2023/07/18 06:26:00;;;;;;;12.68;4.38;;;16.10;99.90;;;;;;4928749;29;20031;-69
2023/07/18 06:28:25;;;;;;;12.10;4.88;;;16.20;99.90;;;;;;4937057;29;20416;-68
2023/07/18 06:30:54;;;;;;;8.93;3.90;;;16.20;99.90;;;;;;4955999;28;20055;-68
2023/07/18 06:33:20;;;;;;;11.68;4.22;;;16.20;99.90;;;;;;4949490;29;20427;-70
2023/07/18 06:35:55;;;;;;;11.82;4.10;;;16.30;99.90;;;;;;4925959;28;20047;-69
2023/07/18 06:38:21;;;;;;;11.52;4.05;;;16.30;99.90;;;;;;4938507;29;20097;-69
2023/07/18 06:40:47;;;;;;;8.40;4.22;;;16.40;99.90;;;;;;4938273;29;20051;-69
2023/07/18 06:43:16;;;;;;;10.38;4.32;;;16.50;99.90;;;;;;4943441;28;20470;-67
2023/07/18 06:45:46;;;;;;;9.25;4.25;;;16.60;99.90;;;;;;4940037;28;20117;-69
2023/07/18 06:48:15;;;;;;;12.48;4.18;;;16.70;99.90;;;;;;4941054;29;20039;-69
2023/07/18 06:50:52;;;;;;;10.60;4.05;;;16.80;99.90;;;;;;4946910;28;20043;-68
2023/07/18 06:53:22;;;;;;;9.07;3.78;;;16.90;99.90;;;;;;4933206;29;20078;-67
2023/07/18 06:55:49;;;;;;;9.07;3.93;;;17.10;99.90;;;;;;4938485;29;20070;-68
2023/07/18 06:58:16;;;;;;;11.43;4.60;;;17.20;99.90;;;;;;4931644;29;20462;-68
2023/07/18 07:00:42;;;;;;;8.32;4.25;;;17.40;99.90;;;;;;4942313;28;20115;-69
2023/07/18 07:03:08;;;;;;;10.98;4.00;;;17.40;99.90;;;;;;4955248;28;20043;-68
2023/07/18 07:05:41;;;;;;;11.25;3.95;;;17.60;99.90;;;;;;4961294;28;20043;-69
2023/07/18 07:08:10;;;;;;;9.45;3.50;;;17.60;99.90;;;;;;4945634;28;20118;-68
2023/07/18 07:10:36;;;;;;;9.18;4.13;;;17.70;99.90;;;;;;4952428;28;20047;-67
2023/07/18 07:13:02;;;;;;;9.63;3.88;;;17.70;99.90;;;;;;4955354;28;20046;-68
2023/07/18 07:15:28;;;;;;;9.38;4.22;;;17.80;99.90;;;;;;4947099;28;20047;-71
2023/07/18 07:17:53;;;;;;;12.80;3.90;;;17.90;99.90;;;;;;4929486;28;20050;-67
2023/07/18 07:20:19;;;;;;;11.43;4.00;;;18.00;99.90;;;;;;4954841;28;20039;-67
2023/07/18 07:22:47;;;;;;;13.18;4.10;;;18.00;99.90;;;;;;4950045;28;20039;-69
2023/07/18 07:25:14;;;;;;;8.73;3.72;;;18.10;99.90;;;;;;4938550;28;20494;-67
2023/07/18 07:27:44;;;;;;;9.23;3.80;;;18.20;99.90;;;;;;4954220;28;20110;-68
2023/07/18 07:30:15;;;;;;;9.88;3.55;;;18.20;99.90;;;;;;4937986;29;20495;-69
2023/07/18 07:32:51;;;;;;;12.63;4.22;;;18.20;99.90;;;;;;4926249;28;20044;-69
2023/07/18 07:35:18;;;;;;;11.07;4.07;;;18.20;99.90;;;;;;4951879;28;20043;-68
2023/07/18 07:37:44;;;;;;;8.98;4.35;;;18.30;99.90;;;;;;4954647;28;20039;-65
2023/07/18 07:40:11;;;;;;;10.75;4.10;;;18.30;99.90;;;;;;4946880;28;20115;-64
2023/07/18 07:42:42;;;;;;;12.35;4.47;;;18.40;99.90;;;;;;4936868;28;20058;-65
2023/07/18 07:45:08;;;;;;;11.77;4.00;;;18.40;99.90;;;;;;4954964;29;20039;-63
2023/07/18 07:47:34;;;;;;;12.82;4.28;;;18.40;99.90;;;;;;4945478;28;20031;-64
2023/07/18 07:50:04;;;;;;;8.80;4.13;;;18.40;99.90;;;;;;4939632;28;20466;-64
2023/07/18 07:52:29;;;;;;;11.38;4.32;;;18.50;99.90;;;;;;4936525;29;20051;-65
2023/07/18 07:54:55;;;;;;;14.30;4.53;;;18.60;99.90;;;;;;4935597;29;20050;-64
2023/07/18 07:57:22;;;;;;;14.98;4.70;;;18.60;99.90;;;;;;4937032;29;20607;-64
2023/07/18 07:59:48;;;;;;;6.85;3.80;;;18.60;99.90;;;;;;4998900;23;20046;-63
2023/07/18 08:02:14;;;;;;;12.10;4.60;;;18.70;99.90;;;;;;4953541;28;20058;-62
2023/07/18 08:04:41;;;;;;;11.43;4.20;;;18.90;99.90;;;;;;4959080;28;20074;-63
2023/07/18 08:07:10;;;;;;;14.23;4.15;;;19.00;99.90;;;;;;4958389;28;20113;-64
2023/07/18 08:09:36;;;;;;;10.65;4.10;;;19.10;99.90;;;;;;4965355;28;20054;-63
2023/07/18 08:12:03;;;;;;;10.20;4.40;;;19.10;99.90;;;;;;4964732;28;20382;-64
2023/07/18 08:14:29;;;;;;;11.95;3.75;;;19.20;99.90;;;;;;4961638;28;20383;-64
2023/07/18 08:16:55;;;;;;;16.27;3.67;;;19.20;99.90;;;;;;4953532;28;20042;-65
2023/07/18 08:19:22;;;;;;;10.27;3.42;;;19.30;99.90;;;;;;4961932;28;20039;-64
2023/07/18 08:21:49;;;;;;;11.82;3.28;;;19.40;99.90;;;;;;4958519;28;20035;-63
2023/07/18 08:24:14;;;;;;;9.60;3.15;;;19.50;99.90;;;;;;4960507;28;20049;-62
2023/07/18 08:26:40;;;;;;;6.60;2.90;;;19.50;99.90;;;;;;4953749;28;20035;-64
2023/07/18 08:29:06;;;;;;;7.65;3.03;;;19.50;99.90;;;;;;4953700;29;20039;-65
2023/07/18 08:31:32;;;;;;;10.90;3.08;;;19.70;99.90;;;;;;4955965;28;20062;-64
2023/07/18 08:33:57;;;;;;;6.60;2.83;;;19.80;99.90;;;;;;4940937;28;20050;-61
2023/07/18 08:36:23;;;;;;;9.90;2.60;;;19.80;99.90;;;;;;4945270;28;20049;-63
2023/07/18 08:38:51;;;;;;;10.50;3.60;;;19.70;99.90;;;;;;4953401;28;20043;-64
2023/07/18 08:41:20;;;;;;;6.88;2.58;;;19.80;99.90;;;;;;4961184;28;20047;-62
2023/07/18 08:43:47;;;;;;;8.20;2.53;;;19.80;99.90;;;;;;4964661;28;20397;-62
2023/07/18 08:46:16;;;;;;;8.98;2.40;;;19.80;99.90;;;;;;4972773;28;20098;-62
2023/07/18 08:48:44;;;;;;;6.20;2.40;;;19.90;99.90;;;;;;4961744;28;20067;-62
2023/07/18 08:51:11;;;;;;;3.50;2.05;;;20.00;99.90;;;;;;4964491;28;20045;-62
2023/07/18 08:53:41;;;;;;;6.22;1.98;;;20.10;99.90;;;;;;4961557;28;20099;-62
2023/07/18 08:56:08;;;;;;;5.70;2.47;;;20.10;99.90;;;;;;4961548;28;20035;-62
2023/07/18 08:58:36;;;;;;;4.65;2.05;;;20.20;99.90;;;;;;4963061;28;20505;-62
2023/07/18 09:01:05;;;;;;;6.63;1.67;;;20.20;99.90;;;;;;4965598;28;20042;-64
2023/07/18 09:03:30;;;;;;;6.63;1.98;;;20.30;99.90;;;;;;4966416;28;20039;-63
2023/07/18 09:05:57;;;;;;;5.75;1.95;;;20.40;99.90;;;;;;4966778;28;20371;-64
2023/07/18 09:08:23;;;;;;;6.20;1.90;;;20.40;99.90;;;;;;4968183;28;20049;-64
2023/07/18 09:11:03;;;;;;;4.05;1.60;;;20.50;99.90;;;;;;4970281;28;20125;-62
2023/07/18 09:13:38;;;;;;;5.90;1.75;;;20.50;99.90;;;;;;4961967;28;20047;-61
2023/07/18 09:16:21;;;;;;;5.20;1.85;;;20.60;99.90;;;;;;4961187;28;20114;-61
2023/07/18 09:18:49;;;;;;;6.78;1.70;;;20.60;99.90;;;;;;4953401;29;20067;-61
2023/07/18 09:21:15;;;;;;;7.30;1.92;;;20.60;99.90;;;;;;4963074;28;20097;-62
2023/07/18 09:23:42;;;;;;;3.95;1.80;;;20.70;99.90;;;;;;4962982;28;20040;-62
2023/07/18 09:26:10;;;;;;;2.55;1.30;;;20.70;99.90;;;;;;4972804;28;20046;-62
2023/07/18 09:28:36;;;;;;;4.32;1.73;;;20.80;99.90;;;;;;4963829;28;20122;-64
2023/07/18 09:31:02;;;;;;;2.30;1.35;;;20.90;99.90;;;;;;4954684;28;20094;-62
2023/07/18 09:33:28;;;;;;;4.03;1.60;;;21.00;99.90;;;;;;4954346;28;20043;-64
2023/07/18 09:36:00;;;;;;;4.07;1.58;;;21.00;99.90;;;;;;4964345;28;20089;-64
2023/07/18 09:38:26;;;;;;;6.38;1.67;;;21.00;99.90;;;;;;4964467;28;20070;-63
2023/07/18 09:40:53;;;;;;;4.75;1.92;;;21.00;99.90;;;;;;4959431;28;20040;-62
2023/07/18 09:43:21;;;;;;;2.40;1.35;;;21.10;99.90;;;;;;4964394;28;20035;-64
2023/07/18 09:45:49;;;;;;;3.95;1.70;;;21.20;99.90;;;;;;4957541;28;20039;-63
2023/07/18 09:48:15;;;;;;;5.78;2.03;;;21.40;99.90;;;;;;4967519;28;20049;-64
2023/07/18 09:50:44;;;;;;;3.17;1.50;;;21.60;99.90;;;;;;4967804;28;20061;-63
2023/07/18 09:53:12;;;;;;;2.75;1.50;;;21.60;99.90;;;;;;4970884;28;20093;-61
2023/07/18 09:55:38;;;;;;;3.80;1.30;;;21.80;99.90;;;;;;4956265;28;20039;-64
2023/07/18 09:58:07;;;;;;;3.97;1.50;;;22.00;99.90;;;;;;4969165;28;20035;-65
2023/07/18 10:00:35;;;;;;;3.00;1.30;;;22.10;99.90;;;;;;4975826;28;20043;-64
2023/07/18 10:03:02;;;;;;;2.95;1.30;;;22.20;99.80;;;;;;4959590;28;20028;-64
2023/07/18 10:05:28;;;;;;;2.97;1.30;;;22.20;99.70;;;;;;4965773;28;20038;-63
2023/07/18 10:07:54;;;;;;;3.25;1.52;;;22.40;99.90;;;;;;4967638;28;20556;-64
2023/07/18 10:10:20;;;;;;;1.83;1.25;;;22.40;99.10;;;;;;4971836;28;20043;-64
2023/07/18 10:13:05;;;;;;;4.53;1.42;;;22.50;98.20;;;;;;4953250;28;20097;-63
2023/07/18 10:16:13;;;;;;;2.63;1.40;;;22.60;98.00;;;;;;4960948;28;20041;-62
2023/07/18 10:18:49;;;;;;;4.05;1.42;;;22.60;96.80;;;;;;4964420;28;20038;-61
2023/07/18 10:21:37;;;;;;;2.75;1.40;;;22.50;97.40;;;;;;4969483;28;20043;-61
2023/07/18 10:24:31;;;;;;;3.28;1.48;;;22.60;97.90;;;;;;4954893;28;20405;-64
2023/07/18 10:27:06;;;;;;;2.90;1.17;;;22.80;96.10;;;;;;4951515;28;20095;-64
2023/07/18 10:29:32;;;;;;;5.07;1.40;;;22.70;98.40;;;;;;4968178;28;20050;-63
2023/07/18 10:32:00;;;;;;;4.05;1.67;;;22.60;98.40;;;;;;4967889;28;20480;-64
2023/07/18 10:34:26;;;;;;;7.13;1.55;;;22.70;98.00;;;;;;4975292;28;20043;-65
2023/07/18 10:36:55;;;;;;;3.97;1.80;;;22.60;95.90;;;;;;4960390;28;20494;-65
2023/07/18 10:39:38;;;;;;;3.85;1.45;;;22.60;97.10;;;;;;4964054;28;20521;-65
2023/07/18 10:42:20;;;;;;;4.65;1.45;;;22.60;95.60;;;;;;4956006;29;20115;-65
2023/07/18 10:44:47;;;;;;;2.30;1.42;;;22.70;95.20;;;;;;4960243;28;20046;-65
2023/07/18 10:47:17;;;;;;;2.78;1.38;;;22.80;97.30;;;;;;4973977;28;20077;-62
2023/07/18 10:49:44;;;;;;;4.10;1.30;;;22.70;96.80;;;;;;4966807;28;20034;-63
2023/07/18 10:52:14;;;;;;;3.38;1.40;;;22.80;96.10;;;;;;4965707;28;21182;-64
2023/07/18 10:54:49;;;;;;;3.30;1.25;;;22.80;96.80;;;;;;4973994;28;20047;-64
2023/07/18 10:57:15;;;;;;;2.13;1.10;;;22.90;96.10;;;;;;4966387;28;20042;-64
2023/07/18 10:59:44;;;;;;;1.63;1.08;;;22.80;95.60;;;;;;4975083;28;20039;-64
2023/07/18 11:02:11;;;;;;;2.95;1.30;;;22.80;94.40;;;;;;4961484;28;20046;-65
2023/07/18 11:04:36;;;;;;;3.85;1.23;;;22.80;94.90;;;;;;4973556;28;20035;-65
2023/07/18 11:07:02;;;;;;;4.07;1.50;;;22.90;95.80;;;;;;4966810;28;20046;-65
2023/07/18 11:09:28;;;;;;;9.88;1.70;;;22.90;94.70;;;;;;4963413;28;20113;-64
2023/07/18 11:11:54;;;;;;;2.45;1.20;;;22.90;94.60;;;;;;4968782;28;20066;-63
2023/07/18 11:14:20;;;;;;;2.17;1.20;;;23.10;94.80;;;;;;4969595;28;20138;-64
2023/07/18 11:16:46;;;;;;;5.30;1.92;;;23.20;94.70;;;;;;4974763;28;20125;-63
2023/07/18 11:19:13;;;;;;;5.00;1.65;;;23.30;94.30;;;;;;4963529;28;20321;-65
2023/07/18 11:21:39;;;;;;;3.28;1.50;;;23.30;94.90;;;;;;4964919;28;20078;-64
2023/07/18 11:24:05;;;;;;;3.83;1.50;;;23.40;94.70;;;;;;4954764;28;20066;-65
2023/07/18 11:26:31;;;;;;;4.30;1.80;;;23.50;94.40;;;;;;4957513;28;20490;-63
2023/07/18 11:28:57;;;;;;;6.13;1.42;;;23.40;93.50;;;;;;4958677;28;20060;-62
2023/07/18 11:31:24;;;;;;;5.53;1.70;;;23.40;95.00;;;;;;4952210;28;20046;-61
2023/07/18 11:33:51;;;;;;;3.05;1.42;;;23.40;93.90;;;;;;4966231;28;20038;-62
2023/07/18 11:36:18;;;;;;;5.55;1.70;;;23.60;94.30;;;;;;4974435;28;20046;-64
2023/07/18 11:38:47;;;;;;;3.45;1.35;;;23.80;94.10;;;;;;4967348;28;20050;-64
2023/07/18 11:41:40;;;;;;;2.63;1.30;;;23.90;92.40;;;;;;4968035;28;20051;-64
2023/07/18 11:44:08;;;;;;;5.45;1.42;;;24.10;93.20;;;;;;4956827;28;20046;-64
2023/07/18 11:46:44;;;;;;;3.25;1.42;;;23.90;93.30;;;;;;4962747;28;20078;-64
2023/07/18 11:49:15;;;;;;;4.13;1.27;;;23.90;93.50;;;;;;4973832;28;20065;-64
2023/07/18 11:51:41;;;;;;;3.67;1.48;;;24.10;93.40;;;;;;4969712;28;20047;-61
2023/07/18 11:54:07;;;;;;;2.33;1.30;;;24.10;93.00;;;;;;4970629;28;20413;-62
2023/07/18 11:56:34;;;;;;;3.67;1.30;;;24.30;93.30;;;;;;4965644;28;20146;-63
2023/07/18 11:59:01;;;;;;;2.88;1.25;;;24.50;93.30;;;;;;4964393;28;20043;-62
2023/07/18 12:01:26;;;;;;;5.60;1.80;;;24.50;91.90;;;;;;4968663;28;20097;-61
2023/07/18 12:03:53;;;;;;;1.67;1.23;;;24.50;92.80;;;;;;4965167;28;20062;-62
2023/07/18 12:06:19;;;;;;;2.50;1.13;;;24.50;92.60;;;;;;4974071;28;20065;-62
2023/07/18 12:08:45;;;;;;;2.72;1.27;;;24.50;92.70;;;;;;4952587;28;20433;-64
2023/07/18 12:11:11;;;;;;;2.00;1.20;;;24.80;93.30;;;;;;4962160;28;20117;-61
2023/07/18 12:13:38;;;;;;;3.28;1.10;;;25.00;93.10;;;;;;4971170;28;20650;-61
2023/07/18 12:16:04;;;;;;;2.35;1.10;;;25.20;91.80;;;;;;4965719;28;20035;-63
2023/07/18 12:18:29;;;;;;;1.63;0.90;;;25.30;91.80;;;;;;4965635;28;20045;-64
2023/07/18 12:20:55;;;;;;;2.50;1.20;;;25.20;91.30;;;;;;4962036;28;20058;-64
2023/07/18 12:23:20;;;;;;;1.50;0.80;;;25.20;91.10;;;;;;4954258;29;20050;-65
2023/07/18 12:25:47;;;;;;;3.33;1.00;;;25.20;90.70;;;;;;4961969;28;20181;-63
2023/07/18 12:28:12;;;;;;;1.33;0.98;;;25.00;90.50;;;;;;4966230;28;20121;-62
2023/07/18 12:30:38;;;;;;;4.88;1.10;;;25.10;90.30;;;;;;4970777;28;20174;-63
2023/07/18 12:33:04;;;;;;;3.03;1.10;;;25.20;90.20;;;;;;4965788;28;20043;-63
2023/07/18 12:35:29;;;;;;;2.08;1.00;;;25.30;88.40;;;;;;4955690;28;20046;-61
2023/07/18 12:37:55;;;;;;;1.38;0.95;;;25.40;89.90;;;;;;4947439;28;20513;-61
2023/07/18 12:40:22;;;;;;;2.72;0.90;;;25.60;90.10;;;;;;4973334;28;20043;-62
2023/07/18 12:42:47;;;;;;;1.98;0.80;;;25.50;88.70;;;;;;4957744;28;20498;-62